Time;durP1;ratioP1;P1;durP2;ratioP2;P2;SDS_P1;SDS_P2;PMS_P1;PMS_P2;Temp;Humidity;BMP_temperature;BMP_pressure;BME280_temperature;BME280_humidity;BME280_pressure;Samples;Min_cycle;Max_cycle;Signal;HPM_P1;HPM_P2
2022/09/13 00:00:25;;;;;;;8.15;6.07;;;;;;;14.01;100.00;99913.97;21074959;28;20044;-80
2022/09/13 00:10:26;;;;;;;8.95;6.10;;;;;;;13.94;100.00;99907.25;21093563;28;20877;-79
2022/09/13 00:20:27;;;;;;;9.30;6.50;;;;;;;13.88;100.00;99888.16;21101265;28;20059;-79
2022/09/13 00:30:29;;;;;;;10.00;5.53;;;;;;;13.72;100.00;99875.59;21076423;28;20048;-79
2022/09/13 00:40:30;;;;;;;9.45;5.70;;;;;;;13.67;100.00;99881.94;21106963;28;20047;-80
2022/09/13 00:50:31;;;;;;;9.13;5.70;;;;;;;13.55;100.00;99867.44;21168319;28;20058;-80
2022/09/13 01:00:33;;;;;;;10.45;5.80;;;;;;;13.43;100.00;99876.66;21126921;28;20051;-80
2022/09/13 01:10:38;;;;;;;11.85;6.05;;;;;;;13.28;100.00;99885.09;21094701;28;20051;-81
2022/09/13 01:20:39;;;;;;;;;;;;;;;13.09;100.00;99895.34;21107787;28;20048;-80
2022/09/13 01:30:41;;;;;;;11.48;6.43;;;;;;;13.05;100.00;99904.22;21094375;28;19920;-80
2022/09/13 01:40:42;;;;;;;12.15;5.90;;;;;;;13.12;100.00;99902.25;21116408;28;20104;-80
2022/09/13 01:50:44;;;;;;;12.93;6.47;;;;;;;13.08;100.00;99899.75;21112843;28;20040;-79
2022/09/13 02:00:46;;;;;;;10.85;6.07;;;;;;;13.02;100.00;99902.56;21113092;28;20056;-80
2022/09/13 02:10:47;;;;;;;13.82;5.75;;;;;;;12.94;100.00;99919.50;21090151;28;20080;-80
2022/09/13 02:20:48;;;;;;;10.00;6.18;;;;;;;12.92;100.00;99908.19;21089757;28;20051;-79
2022/09/13 02:30:50;;;;;;;9.73;5.80;;;;;;;12.93;100.00;99892.34;21086503;28;20492;-79
2022/09/13 02:40:52;;;;;;;11.57;6.38;;;;;;;12.90;100.00;99895.09;21101150;28;20496;-79
2022/09/13 02:50:53;;;;;;;11.60;6.07;;;;;;;12.76;100.00;99913.94;21106391;28;20040;-80
2022/09/13 03:00:55;;;;;;;9.68;5.82;;;;;;;12.69;100.00;99895.78;21088286;28;20044;-79
2022/09/13 03:10:56;;;;;;;15.02;6.78;;;;;;;12.64;100.00;99887.19;21089135;28;20082;-80
2022/09/13 03:20:58;;;;;;;13.70;6.00;;;;;;;12.54;100.00;99884.88;21105436;28;20052;-80
2022/09/13 03:30:59;;;;;;;12.95;6.80;;;;;;;12.65;100.00;99876.66;21104395;28;20105;-78
2022/09/13 03:41:01;;;;;;;10.30;5.80;;;;;;;12.76;100.00;99860.53;21085994;28;20056;-79
2022/09/13 03:51:02;;;;;;;11.02;6.63;;;;;;;12.77;100.00;99862.25;21085578;28;20052;-79
2022/09/13 04:01:04;;;;;;;11.05;6.00;;;;;;;12.61;100.00;99876.81;21085574;28;20044;-80
2022/09/13 04:11:05;;;;;;;12.00;6.00;;;;;;;12.54;100.00;99873.50;21092484;28;20048;-79
2022/09/13 04:21:06;;;;;;;11.70;7.30;;;;;;;12.70;100.00;99868.63;21110557;28;20099;-78
2022/09/13 04:31:08;;;;;;;13.48;6.65;;;;;;;12.84;100.00;99863.78;21139122;28;20040;-78
2022/09/13 04:41:10;;;;;;;14.43;6.63;;;;;;;12.87;100.00;99887.31;21121721;28;20056;-79
2022/09/13 04:51:13;;;;;;;11.88;6.60;;;;;;;12.85;100.00;99897.03;21064267;28;20048;-79
2022/09/13 05:01:14;;;;;;;10.80;6.40;;;;;;;12.88;100.00;99894.28;21048887;28;20043;-79
2022/09/13 05:11:16;;;;;;;9.63;5.80;;;;;;;13.01;100.00;99900.00;21062191;28;20051;-80
2022/09/13 05:21:17;;;;;;;9.40;6.63;;;;;;;12.97;100.00;99915.00;21078270;28;20048;-79
2022/09/13 05:31:19;;;;;;;10.23;6.30;;;;;;;13.03;100.00;99917.44;21073302;28;20438;-80
2022/09/13 05:41:20;;;;;;;12.82;6.32;;;;;;;12.95;100.00;99929.97;21080518;28;20110;-80
2022/09/13 05:51:21;;;;;;;12.23;6.68;;;;;;;13.15;100.00;99936.31;21069382;28;20086;-79
2022/09/13 06:01:23;;;;;;;13.48;8.38;;;;;;;13.49;100.00;99931.66;21082908;28;20048;-79
2022/09/13 06:11:25;;;;;;;11.70;7.95;;;;;;;13.86;100.00;99920.66;21082634;28;20051;-79
2022/09/13 06:21:27;;;;;;;12.82;8.23;;;;;;;14.15;100.00;99912.59;21087390;28;20050;-80
2022/09/13 06:31:29;;;;;;;12.43;7.80;;;;;;;14.66;100.00;99900.94;21077931;28;20043;-79
2022/09/13 06:41:30;;;;;;;11.93;7.30;;;;;;;15.25;100.00;99894.97;21062625;28;20574;-79
2022/09/13 06:51:32;;;;;;;11.30;6.60;;;;;;;15.74;100.00;99895.50;21085972;28;20067;-80
2022/09/13 07:01:33;;;;;;;11.85;6.45;;;;;;;15.90;100.00;99878.91;21092677;28;20101;-80
2022/09/13 07:11:34;;;;;;;10.45;6.68;;;;;;;16.10;100.00;99854.19;21082242;28;20544;-79
2022/09/13 07:21:36;;;;;;;11.45;6.57;;;;;;;16.26;100.00;99872.81;21086575;28;20093;-80
2022/09/13 07:31:37;;;;;;;8.15;5.30;;;;;;;16.57;100.00;99880.09;21061349;22;20044;-71
2022/09/13 07:41:39;;;;;;;10.43;6.00;;;;;;;16.79;100.00;99884.38;21052200;22;20493;-71
2022/09/13 07:51:40;;;;;;;11.20;6.57;;;;;;;17.17;100.00;99866.59;20971654;28;20079;-69
2022/09/13 08:01:41;;;;;;;6.78;4.35;;;;;;;17.42;100.00;99879.41;20972195;28;20040;-69
2022/09/13 08:11:43;;;;;;;10.80;6.10;;;;;;;17.50;100.00;99869.28;20971818;28;20396;-69
2022/09/13 08:21:44;;;;;;;9.93;5.07;;;;;;;17.94;100.00;99880.16;20972337;28;20068;-70
2022/09/13 08:31:45;;;;;;;9.90;5.28;;;;;;;18.60;100.00;99868.53;20971890;28;20044;-70
2022/09/13 08:41:47;;;;;;;8.13;4.25;;;;;;;18.64;100.00;99885.13;20977508;28;20044;-72
2022/09/13 08:51:49;;;;;;;13.90;5.25;;;;;;;19.49;100.00;99892.50;20985449;28;20076;-70
2022/09/13 09:01:50;;;;;;;9.75;3.95;;;;;;;19.41;100.00;99863.78;20985707;28;20091;-70
2022/09/13 09:11:52;;;;;;;6.57;3.47;;;;;;;19.70;100.00;99880.59;20983883;28;20103;-71
2022/09/13 09:21:54;;;;;;;6.03;2.95;;;;;;;19.96;94.67;99904.69;20984427;28;20106;-70
2022/09/13 09:31:56;;;;;;;4.18;2.50;;;;;;;20.47;93.84;99900.56;20983099;28;20072;-70
2022/09/13 09:41:58;;;;;;;6.70;2.53;;;;;;;21.00;89.07;99874.03;20984084;28;20059;-72
2022/09/13 09:51:59;;;;;;;9.27;2.58;;;;;;;20.74;90.79;99895.25;20979002;28;20310;-69
2022/09/13 10:02:03;;;;;;;9.75;2.30;;;;;;;21.91;88.22;99882.00;20980398;28;20106;-70
2022/09/13 10:12:05;;;;;;;8.45;2.88;;;;;;;22.29;83.78;99879.28;20979385;28;20044;-68
2022/09/13 10:22:07;;;;;;;5.65;2.15;;;;;;;22.26;83.23;99867.00;20979232;28;20044;-68
2022/09/13 10:32:08;;;;;;;5.70;2.47;;;;;;;22.17;83.41;99878.31;20975385;28;20123;-67
2022/09/13 10:42:09;;;;;;;6.72;2.50;;;;;;;22.36;83.68;99872.50;20976551;28;20075;-68
2022/09/13 10:52:11;;;;;;;8.30;2.35;;;;;;;22.65;83.91;99883.72;20976092;28;20040;-68
2022/09/13 11:02:14;;;;;;;4.63;2.70;;;;;;;23.46;79.46;99869.56;20975320;28;20049;-68
2022/09/13 11:12:17;;;;;;;5.88;2.42;;;;;;;23.15;81.09;99855.06;20973457;28;20048;-68
2022/09/13 11:22:18;;;;;;;5.32;2.47;;;;;;;23.25;80.04;99850.72;20974799;28;20444;-68
2022/09/13 11:32:20;;;;;;;4.32;2.30;;;;;;;23.35;80.91;99845.50;20972359;28;20417;-68
2022/09/13 11:42:21;;;;;;;4.60;2.20;;;;;;;24.04;78.60;99832.88;20973766;28;20103;-70
2022/09/13 11:52:22;;;;;;;5.55;2.20;;;;;;;24.49;75.63;99787.34;20972742;28;20488;-69
2022/09/13 12:02:23;;;;;;;6.70;2.22;;;;;;;24.35;79.48;99765.34;20972092;28;20052;-68
2022/09/13 12:12:25;;;;;;;4.57;2.10;;;;;;;24.62;75.17;99768.41;20975269;28;20053;-69
2022/09/13 12:22:26;;;;;;;4.72;2.00;;;;;;;24.59;59.49;99766.00;20988069;28;20095;-69
2022/09/13 12:32:31;;;;;;;7.07;2.42;;;;;;;24.88;56.64;99747.47;20987725;28;20045;-68
2022/09/13 12:42:32;;;;;;;6.45;2.03;;;;;;;25.06;59.91;99748.56;20987095;28;20079;-69
2022/09/13 12:52:34;;;;;;;8.07;2.22;;;;;;;24.91;57.17;99730.25;20987233;28;20558;-68
2022/09/13 13:02:35;;;;;;;4.35;1.83;;;;;;;25.18;55.86;99722.56;20983321;28;20546;-68
2022/09/13 13:12:36;;;;;;;5.78;1.90;;;;;;;25.01;56.35;99720.47;20981944;28;20044;-68
2022/09/13 13:22:38;;;;;;;3.33;1.20;;;;;;;25.41;50.72;99706.28;20982933;28;20076;-69
2022/09/13 13:32:39;;;;;;;3.15;1.23;;;;;;;25.53;51.09;99700.66;20980713;28;20094;-69
2022/09/13 13:42:40;;;;;;;2.30;1.10;;;;;;;25.05;50.76;99690.59;20981152;28;20534;-68
2022/09/13 13:52:41;;;;;;;2.20;1.30;;;;;;;24.99;50.62;99679.56;20980677;28;20072;-68
2022/09/13 14:02:43;;;;;;;3.60;1.42;;;;;;;25.07;52.18;99672.59;20979665;28;20040;-69
2022/09/13 14:12:45;;;;;;;3.05;1.48;;;;;;;25.61;51.11;99646.38;20979768;28;20072;-69
2022/09/13 14:22:46;;;;;;;10.07;1.70;;;;;;;25.72;50.25;99640.88;20978436;28;20539;-69
2022/09/13 14:32:47;;;;;;;5.20;1.60;;;;;;;25.84;50.10;99623.72;20974763;28;20475;-68
2022/09/13 14:42:49;;;;;;;5.28;1.70;;;;;;;25.83;51.09;99605.94;20974893;28;20044;-68
2022/09/13 14:52:50;;;;;;;4.28;1.40;;;;;;;25.93;50.42;99583.63;20971301;28;20047;-68
2022/09/13 15:02:51;;;;;;;5.38;1.42;;;;;;;25.66;50.69;99570.88;20973964;28;20055;-68
2022/09/13 15:12:53;;;;;;;3.40;1.40;;;;;;;25.58;51.34;99556.38;20973292;28;20079;-68
2022/09/13 15:22:54;;;;;;;2.83;1.02;;;;;;;25.33;52.54;99538.97;20973489;28;20075;-68
2022/09/13 15:32:55;;;;;;;5.18;1.65;;;;;;;25.00;54.49;99531.28;20971653;28;20044;-68
2022/09/13 15:42:56;;;;;;;2.92;1.35;;;;;;;24.76;56.73;99512.88;20971730;28;21088;-68
2022/09/13 15:52:58;;;;;;;4.90;1.65;;;;;;;24.72;57.52;99522.16;20970543;28;20045;-68
2022/09/13 16:02:59;;;;;;;5.85;1.63;;;;;;;24.56;57.10;99509.31;20963671;28;20068;-71
2022/09/13 16:13:00;;;;;;;6.78;1.52;;;;;;;24.44;57.63;99510.41;20955559;28;20052;-71
2022/09/13 16:23:02;;;;;;;5.75;1.67;;;;;;;24.32;58.72;99510.44;20966416;28;20114;-71
2022/09/13 16:33:03;;;;;;;2.85;1.55;;;;;;;24.05;60.18;99496.75;20965479;28;20077;-71
2022/09/13 16:43:04;;;;;;;6.45;1.80;;;;;;;23.85;59.26;99489.63;20960789;28;20354;-71
2022/09/13 16:53:06;;;;;;;8.65;1.90;;;;;;;23.71;58.75;99504.16;20963522;28;20566;-71
2022/09/13 17:03:07;;;;;;;5.72;1.85;;;;;;;23.51;58.92;99498.63;20970668;28;20102;-72
2022/09/13 17:13:08;;;;;;;9.20;2.05;;;;;;;23.36;59.64;99499.06;20973494;28;20540;-71
2022/09/13 17:23:10;;;;;;;6.13;1.80;;;;;;;23.21;60.09;99485.16;20977357;28;20098;-71
2022/09/13 17:33:11;;;;;;;6.22;1.80;;;;;;;22.95;61.79;99481.97;20976584;28;20072;-71
2022/09/13 17:43:12;;;;;;;9.82;2.90;;;;;;;22.70;62.85;99497.25;20975945;28;20048;-71
2022/09/13 17:53:13;;;;;;;5.70;2.60;;;;;;;22.53;64.33;99487.09;20976140;28;20574;-71
2022/09/13 18:03:15;;;;;;;4.88;2.35;;;;;;;22.25;65.88;99507.94;20973969;28;20444;-71
2022/09/13 18:13:16;;;;;;;6.85;2.08;;;;;;;21.92;67.69;99526.53;20972824;28;20102;-72
2022/09/13 18:23:17;;;;;;;5.78;2.70;;;;;;;21.69;69.26;99526.44;20973949;28;20056;-71
2022/09/13 18:33:19;;;;;;;8.88;2.95;;;;;;;21.55;70.28;99545.28;20972624;28;20515;-71
2022/09/13 18:43:22;;;;;;;9.48;2.85;;;;;;;21.34;72.18;99537.09;20971878;28;20439;-72
2022/09/13 18:53:23;;;;;;;9.43;3.33;;;;;;;21.24;73.04;99547.53;20970520;28;20080;-71
2022/09/13 19:03:34;;;;;;;9.70;3.58;;;;;;;21.04;75.24;99545.47;20968868;28;20047;-71
2022/09/13 19:13:36;;;;;;;10.90;3.20;;;;;;;20.93;76.77;99548.06;20963850;28;20059;-72
2022/09/13 19:23:37;;;;;;;8.52;3.47;;;;;;;20.82;78.09;99562.13;20968526;28;20098;-71
2022/09/13 19:34:01;;;;;;;11.15;4.32;;;;;;;20.74;79.34;99564.47;20968494;28;20056;-71
2022/09/13 19:44:03;;;;;;;10.23;4.10;;;;;;;20.71;79.80;99559.41;20966797;28;20052;-71
2022/09/13 19:54:04;;;;;;;13.18;5.85;;;;;;;20.41;82.87;99567.66;20969577;28;20087;-71
2022/09/13 20:04:06;;;;;;;12.63;5.25;;;;;;;20.20;85.65;99554.91;20972615;28;20552;-71
2022/09/13 20:14:07;;;;;;;13.50;6.38;;;;;;;20.02;90.14;99552.66;20973235;28;20052;-71
2022/09/13 20:24:08;;;;;;;13.20;7.90;;;;;;;19.97;94.04;99547.66;20973337;28;20078;-72
2022/09/13 20:34:10;;;;;;;16.75;7.75;;;;;;;19.86;100.00;99531.63;20978269;28;20048;-72
2022/09/13 20:44:11;;;;;;;13.85;8.55;;;;;;;19.64;100.00;99529.53;20988458;28;20094;-72
2022/09/13 20:54:13;;;;;;;15.70;8.95;;;;;;;19.65;100.00;99537.44;20924748;28;20492;-69
2022/09/13 21:04:16;;;;;;;14.73;8.73;;;;;;;19.63;100.00;99534.00;20903260;28;20508;-70
2022/09/13 21:14:17;;;;;;;15.75;10.07;;;;;;;19.36;100.00;99526.06;20945493;28;20056;-71
2022/09/13 21:24:19;;;;;;;20.10;11.63;;;;;;;19.31;100.00;99522.00;20987036;28;20044;-71
2022/09/13 21:34:20;;;;;;;21.63;12.15;;;;;;;19.28;100.00;99495.66;20987036;28;20483;-70
2022/09/13 21:44:21;;;;;;;19.77;11.65;;;;;;;19.33;100.00;99499.69;20983978;28;20546;-70
2022/09/13 21:54:22;;;;;;;18.10;11.77;;;;;;;19.23;100.00;99488.84;20983699;28;20140;-70
2022/09/13 22:04:25;;;;;;;20.58;11.45;;;;;;;19.19;100.00;99487.34;20986105;28;20082;-70
2022/09/13 22:14:27;;;;;;;18.50;11.88;;;;;;;19.20;100.00;99472.25;20990587;28;20159;-69
2022/09/13 22:24:28;;;;;;;14.82;10.55;;;;;;;19.15;100.00;99448.69;20990086;28;20090;-70
2022/09/13 22:34:30;;;;;;;20.20;12.10;;;;;;;19.10;100.00;99418.94;20989076;28;20044;-71
2022/09/13 22:44:31;;;;;;;17.67;10.95;;;;;;;18.97;100.00;99423.34;20988126;28;20102;-71
2022/09/13 22:54:33;;;;;;;21.05;12.85;;;;;;;18.92;100.00;99428.13;20986652;28;20109;-70
2022/09/13 23:04:34;;;;;;;18.20;11.02;;;;;;;19.07;100.00;99429.78;20986780;28;20132;-70
2022/09/13 23:14:35;;;;;;;15.32;9.98;;;;;;;18.84;100.00;99449.00;20986310;28;20457;-72
2022/09/13 23:24:37;;;;;;;18.05;10.93;;;;;;;18.66;100.00;99446.56;20985232;28;20048;-74
2022/09/13 23:34:38;;;;;;;21.85;12.27;;;;;;;18.20;100.00;99460.09;20984320;28;20048;-72
2022/09/13 23:44:39;;;;;;;23.55;14.85;;;;;;;17.99;100.00;99461.38;20984295;28;20083;-77
2022/09/13 23:54:41;;;;;;;24.65;15.30;;;;;;;17.83;100.00;99465.94;20984308;28;20501;-78
